sensor_id;sensor_type;location;lat;lon;timestamp;pressure;altitude;pressure_sealevel;temperature;humidity
10510;BME280;5303;53.266;10.410;2023-02-01T00:01:36;100878.78;;;8.36;100.00
10510;BME280;5303;53.266;10.410;2023-02-01T00:04:02;100870.31;;;8.21;100.00
10510;BME280;5303;53.266;10.410;2023-02-01T00:06:27;100867.56;;;8.13;100.00
10510;BME280;5303;53.266;10.410;2023-02-01T00:08:53;100864.13;;;8.29;100.00
10510;BME280;5303;53.266;10.410;2023-02-01T00:11:19;100865.91;;;8.20;100.00
10510;BME280;5303;53.266;10.410;2023-02-01T00:13:45;100845.28;;;8.27;100.00
10510;BME280;5303;53.266;10.410;2023-02-01T00:18:39;100842.88;;;8.24;100.00
10510;BME280;5303;53.266;10.410;2023-02-01T00:21:06;100851.38;;;8.03;100.00
10510;BME280;5303;53.266;10.410;2023-02-01T00:23:33;100848.56;;;8.13;100.00
10510;BME280;5303;53.266;10.410;2023-02-01T00:26:07;100850.50;;;8.21;100.00
10510;BME280;5303;53.266;10.410;2023-02-01T00:28:33;100854.28;;;8.28;100.00
10510;BME280;5303;53.266;10.410;2023-02-01T00:30:59;100850.25;;;8.32;100.00
10510;BME280;5303;53.266;10.410;2023-02-01T00:33:25;100846.97;;;8.46;100.00
10510;BME280;5303;53.266;10.410;2023-02-01T00:35:50;100847.00;;;8.28;100.00
10510;BME280;5303;53.266;10.410;2023-02-01T00:38:16;100847.31;;;8.25;100.00
10510;BME280;5303;53.266;10.410;2023-02-01T00:40:41;100847.25;;;8.17;100.00
10510;BME280;5303;53.266;10.410;2023-02-01T00:43:06;100839.00;;;8.27;100.00
10510;BME280;5303;53.266;10.410;2023-02-01T00:45:32;100841.78;;;8.53;100.00
10510;BME280;5303;53.266;10.410;2023-02-01T00:47:57;100840.19;;;8.42;100.00
10510;BME280;5303;53.266;10.410;2023-02-01T00:50:22;100839.53;;;8.30;100.00
10510;BME280;5303;53.266;10.410;2023-02-01T00:52:47;100849.81;;;8.62;100.00
10510;BME280;5303;53.266;10.410;2023-02-01T00:55:13;100838.84;;;8.72;100.00
10510;BME280;5303;53.266;10.410;2023-02-01T00:57:38;100832.66;;;8.62;100.00
10510;BME280;5303;53.266;10.410;2023-02-01T01:00:04;100825.56;;;8.69;100.00
10510;BME280;5303;53.266;10.410;2023-02-01T01:02:29;100836.03;;;8.56;100.00
10510;BME280;5303;53.266;10.410;2023-02-01T01:04:54;100831.06;;;8.77;100.00
10510;BME280;5303;53.266;10.410;2023-02-01T01:07:19;100832.72;;;8.70;100.00
10510;BME280;5303;53.266;10.410;2023-02-01T01:09:45;100829.66;;;8.99;100.00
10510;BME280;5303;53.266;10.410;2023-02-01T01:12:10;100835.00;;;8.83;100.00
10510;BME280;5303;53.266;10.410;2023-02-01T01:14:35;100833.47;;;8.54;100.00
10510;BME280;5303;53.266;10.410;2023-02-01T01:17:00;100827.56;;;8.59;100.00
10510;BME280;5303;53.266;10.410;2023-02-01T01:19:26;100831.28;;;8.58;100.00
10510;BME280;5303;53.266;10.410;2023-02-01T01:21:51;100824.47;;;8.54;100.00
10510;BME280;5303;53.266;10.410;2023-02-01T01:24:16;100826.13;;;8.47;100.00
10510;BME280;5303;53.266;10.410;2023-02-01T01:26:41;100821.69;;;8.72;100.00
10510;BME280;5303;53.266;10.410;2023-02-01T01:29:09;100827.75;;;8.66;100.00
10510;BME280;5303;53.266;10.410;2023-02-01T01:31:34;100814.09;;;8.49;100.00
10510;BME280;5303;53.266;10.410;2023-02-01T01:33:59;100814.38;;;8.64;100.00
10510;BME280;5303;53.266;10.410;2023-02-01T01:36:27;100807.28;;;8.71;100.00
10510;BME280;5303;53.266;10.410;2023-02-01T01:38:53;100809.59;;;8.66;100.00
10510;BME280;5303;53.266;10.410;2023-02-01T01:41:22;100811.22;;;8.51;100.00
10510;BME280;5303;53.266;10.410;2023-02-01T01:44:02;100794.06;;;8.50;100.00
10510;BME280;5303;53.266;10.410;2023-02-01T01:46:31;100800.28;;;8.69;100.00
10510;BME280;5303;53.266;10.410;2023-02-01T01:49:03;100799.38;;;8.60;100.00
10510;BME280;5303;53.266;10.410;2023-02-01T01:51:31;100788.31;;;8.53;100.00
10510;BME280;5303;53.266;10.410;2023-02-01T01:56:57;100768.66;;;8.59;100.00
10510;BME280;5303;53.266;10.410;2023-02-01T01:59:24;100770.41;;;8.60;100.00
10510;BME280;5303;53.266;10.410;2023-02-01T02:01:51;100779.53;;;8.59;100.00
10510;BME280;5303;53.266;10.410;2023-02-01T02:04:17;100763.44;;;8.66;100.00
10510;BME280;5303;53.266;10.410;2023-02-01T02:06:50;100762.19;;;8.52;100.00
10510;BME280;5303;53.266;10.410;2023-02-01T02:09:18;100762.78;;;8.64;100.00
10510;BME280;5303;53.266;10.410;2023-02-01T02:11:43;100756.59;;;8.54;100.00
10510;BME280;5303;53.266;10.410;2023-02-01T02:14:12;100746.88;;;8.43;100.00
10510;BME280;5303;53.266;10.410;2023-02-01T02:34:14;100732.72;;;8.66;100.00
10510;BME280;5303;53.266;10.410;2023-02-01T02:36:57;100710.63;;;8.52;100.00
10510;BME280;5303;53.266;10.410;2023-02-01T02:44:49;100717.59;;;8.63;100.00
10510;BME280;5303;53.266;10.410;2023-02-01T02:47:44;100714.56;;;8.66;100.00
10510;BME280;5303;53.266;10.410;2023-02-01T02:50:32;100706.41;;;8.58;100.00
10510;BME280;5303;53.266;10.410;2023-02-01T02:53:25;100703.63;;;8.50;100.00
10510;BME280;5303;53.266;10.410;2023-02-01T02:56:11;100701.63;;;8.52;100.00
10510;BME280;5303;53.266;10.410;2023-02-01T02:58:57;100694.16;;;8.54;100.00
10510;BME280;5303;53.266;10.410;2023-02-01T03:01:43;100695.69;;;8.56;100.00
10510;BME280;5303;53.266;10.410;2023-02-01T03:04:26;100695.88;;;8.63;100.00
10510;BME280;5303;53.266;10.410;2023-02-01T03:06:53;100710.31;;;8.29;100.00
10510;BME280;5303;53.266;10.410;2023-02-01T03:09:35;100699.56;;;8.46;100.00
10510;BME280;5303;53.266;10.410;2023-02-01T03:12:07;100706.06;;;8.61;100.00
10510;BME280;5303;53.266;10.410;2023-02-01T03:14:58;100701.47;;;8.27;100.00
10510;BME280;5303;53.266;10.410;2023-02-01T03:17:30;100699.19;;;8.14;100.00
10510;BME280;5303;53.266;10.410;2023-02-01T03:19:59;100697.41;;;8.31;100.00
10510;BME280;5303;53.266;10.410;2023-02-01T03:22:27;100690.81;;;8.34;100.00
10510;BME280;5303;53.266;10.410;2023-02-01T03:25:07;100688.41;;;8.31;100.00
10510;BME280;5303;53.266;10.410;2023-02-01T03:27:48;100673.66;;;8.25;100.00
10510;BME280;5303;53.266;10.410;2023-02-01T03:30:20;100680.88;;;8.43;100.00
10510;BME280;5303;53.266;10.410;2023-02-01T03:32:47;100671.75;;;8.52;100.00
10510;BME280;5303;53.266;10.410;2023-02-01T03:35:29;100675.28;;;8.44;100.00
10510;BME280;5303;53.266;10.410;2023-02-01T03:38:03;100676.47;;;8.42;100.00
10510;BME280;5303;53.266;10.410;2023-02-01T03:40:35;100687.59;;;8.04;100.00
10510;BME280;5303;53.266;10.410;2023-02-01T03:43:04;100688.44;;;8.05;100.00
10510;BME280;5303;53.266;10.410;2023-02-01T03:45:38;100670.91;;;7.91;100.00
10510;BME280;5303;53.266;10.410;2023-02-01T03:48:06;100677.66;;;8.13;100.00
10510;BME280;5303;53.266;10.410;2023-02-01T03:50:35;100687.44;;;8.06;100.00
10510;BME280;5303;53.266;10.410;2023-02-01T03:53:06;100695.41;;;7.81;100.00
10510;BME280;5303;53.266;10.410;2023-02-01T03:55:34;100692.19;;;8.04;100.00
10510;BME280;5303;53.266;10.410;2023-02-01T03:58:14;100699.69;;;7.66;100.00
10510;BME280;5303;53.266;10.410;2023-02-01T04:00:42;100700.41;;;7.14;100.00
10510;BME280;5303;53.266;10.410;2023-02-01T04:03:09;100683.56;;;7.20;100.00
10510;BME280;5303;53.266;10.410;2023-02-01T04:05:34;100684.34;;;7.13;100.00
10510;BME280;5303;53.266;10.410;2023-02-01T04:08:00;100671.09;;;7.10;100.00
10510;BME280;5303;53.266;10.410;2023-02-01T04:10:25;100670.94;;;7.11;100.00
10510;BME280;5303;53.266;10.410;2023-02-01T04:12:51;100667.91;;;7.14;100.00
10510;BME280;5303;53.266;10.410;2023-02-01T04:15:16;100667.84;;;7.24;100.00
10510;BME280;5303;53.266;10.410;2023-02-01T04:17:42;100668.38;;;7.28;100.00
10510;BME280;5303;53.266;10.410;2023-02-01T04:20:07;100656.22;;;7.32;100.00
10510;BME280;5303;53.266;10.410;2023-02-01T04:22:34;100656.13;;;7.41;100.00
10510;BME280;5303;53.266;10.410;2023-02-01T04:24:59;100647.19;;;7.23;100.00
10510;BME280;5303;53.266;10.410;2023-02-01T04:27:24;100653.22;;;7.17;100.00
10510;BME280;5303;53.266;10.410;2023-02-01T04:29:50;100641.50;;;7.34;100.00
10510;BME280;5303;53.266;10.410;2023-02-01T04:32:16;100644.91;;;7.36;100.00
10510;BME280;5303;53.266;10.410;2023-02-01T04:34:41;100640.75;;;7.42;100.00
10510;BME280;5303;53.266;10.410;2023-02-01T04:37:07;100634.28;;;7.61;100.00
10510;BME280;5303;53.266;10.410;2023-02-01T04:39:32;100629.59;;;7.45;100.00
10510;BME280;5303;53.266;10.410;2023-02-01T04:41:58;100634.72;;;7.56;100.00
10510;BME280;5303;53.266;10.410;2023-02-01T04:44:23;100635.22;;;7.52;100.00
10510;BME280;5303;53.266;10.410;2023-02-01T04:46:49;100637.72;;;7.45;100.00
10510;BME280;5303;53.266;10.410;2023-02-01T04:49:14;100639.03;;;7.67;100.00
10510;BME280;5303;53.266;10.410;2023-02-01T04:51:40;100636.72;;;7.72;100.00
10510;BME280;5303;53.266;10.410;2023-02-01T04:54:06;100642.22;;;7.36;100.00
10510;BME280;5303;53.266;10.410;2023-02-01T04:56:32;100625.28;;;7.60;100.00
10510;BME280;5303;53.266;10.410;2023-02-01T04:58:57;100619.06;;;7.42;100.00
10510;BME280;5303;53.266;10.410;2023-02-01T05:01:22;100633.31;;;7.26;100.00
10510;BME280;5303;53.266;10.410;2023-02-01T05:03:49;100621.19;;;7.56;100.00
10510;BME280;5303;53.266;10.410;2023-02-01T05:06:14;100621.03;;;7.58;100.00
10510;BME280;5303;53.266;10.410;2023-02-01T05:08:40;100628.59;;;7.28;100.00
10510;BME280;5303;53.266;10.410;2023-02-01T05:11:05;100630.66;;;7.52;100.00
10510;BME280;5303;53.266;10.410;2023-02-01T05:13:30;100631.56;;;7.61;100.00
10510;BME280;5303;53.266;10.410;2023-02-01T05:16:14;100633.78;;;7.65;100.00
10510;BME280;5303;53.266;10.410;2023-02-01T05:18:40;100638.03;;;7.24;100.00
10510;BME280;5303;53.266;10.410;2023-02-01T05:21:05;100628.97;;;7.33;100.00
10510;BME280;5303;53.266;10.410;2023-02-01T05:23:31;100634.00;;;7.28;100.00
10510;BME280;5303;53.266;10.410;2023-02-01T05:25:59;100625.38;;;7.07;100.00
10510;BME280;5303;53.266;10.410;2023-02-01T05:28:25;100629.53;;;7.01;100.00
10510;BME280;5303;53.266;10.410;2023-02-01T05:30:50;100644.13;;;6.72;100.00
10510;BME280;5303;53.266;10.410;2023-02-01T05:33:16;100650.16;;;6.66;100.00
10510;BME280;5303;53.266;10.410;2023-02-01T05:35:41;100649.88;;;6.87;100.00
10510;BME280;5303;53.266;10.410;2023-02-01T05:38:06;100654.13;;;6.72;100.00
10510;BME280;5303;53.266;10.410;2023-02-01T05:40:32;100657.19;;;6.77;100.00
10510;BME280;5303;53.266;10.410;2023-02-01T05:42:57;100716.91;;;9.03;100.00
10510;BME280;5303;53.266;10.410;2023-02-01T05:45:22;100705.63;;;8.74;100.00
10510;BME280;5303;53.266;10.410;2023-02-01T05:47:47;100667.66;;;7.87;100.00
10510;BME280;5303;53.266;10.410;2023-02-01T05:50:13;100667.91;;;6.96;100.00
10510;BME280;5303;53.266;10.410;2023-02-01T05:52:38;100665.59;;;6.56;100.00
10510;BME280;5303;53.266;10.410;2023-02-01T05:55:04;100661.50;;;6.97;100.00
10510;BME280;5303;53.266;10.410;2023-02-01T05:57:29;100631.28;;;6.57;100.00
10510;BME280;5303;53.266;10.410;2023-02-01T05:59:55;100632.16;;;6.29;100.00
10510;BME280;5303;53.266;10.410;2023-02-01T06:02:20;100630.94;;;6.14;100.00
10510;BME280;5303;53.266;10.410;2023-02-01T06:04:46;100619.00;;;6.35;100.00
10510;BME280;5303;53.266;10.410;2023-02-01T06:07:12;100616.34;;;6.25;100.00
10510;BME280;5303;53.266;10.410;2023-02-01T06:09:37;100619.41;;;6.12;100.00
10510;BME280;5303;53.266;10.410;2023-02-01T06:12:03;100628.50;;;6.21;100.00
10510;BME280;5303;53.266;10.410;2023-02-01T06:14:29;100621.47;;;6.00;100.00
10510;BME280;5303;53.266;10.410;2023-02-01T06:16:54;100629.94;;;6.15;100.00
10510;BME280;5303;53.266;10.410;2023-02-01T06:19:20;100633.25;;;6.37;100.00
10510;BME280;5303;53.266;10.410;2023-02-01T06:21:46;100638.28;;;6.22;100.00
10510;BME280;5303;53.266;10.410;2023-02-01T06:24:12;100650.88;;;6.03;100.00
10510;BME280;5303;53.266;10.410;2023-02-01T06:26:37;100645.66;;;5.92;100.00
10510;BME280;5303;53.266;10.410;2023-02-01T06:29:04;100647.59;;;5.63;100.00
10510;BME280;5303;53.266;10.410;2023-02-01T06:31:29;100637.50;;;5.55;100.00
10510;BME280;5303;53.266;10.410;2023-02-01T06:33:54;100641.34;;;5.52;100.00
10510;BME280;5303;53.266;10.410;2023-02-01T06:36:19;100626.31;;;5.87;100.00
10510;BME280;5303;53.266;10.410;2023-02-01T06:38:47;100634.88;;;5.82;100.00
10510;BME280;5303;53.266;10.410;2023-02-01T06:41:12;100621.63;;;5.89;100.00
10510;BME280;5303;53.266;10.410;2023-02-01T06:43:38;100627.22;;;5.78;100.00
10510;BME280;5303;53.266;10.410;2023-02-01T06:46:06;100628.56;;;6.01;100.00
10510;BME280;5303;53.266;10.410;2023-02-01T06:48:32;100624.97;;;6.11;100.00
10510;BME280;5303;53.266;10.410;2023-02-01T06:50:57;100624.19;;;5.91;100.00
10510;BME280;5303;53.266;10.410;2023-02-01T06:53:23;100633.56;;;5.87;100.00
10510;BME280;5303;53.266;10.410;2023-02-01T06:55:53;100639.34;;;6.11;100.00
10510;BME280;5303;53.266;10.410;2023-02-01T06:58:18;100631.19;;;6.21;100.00
10510;BME280;5303;53.266;10.410;2023-02-01T07:00:43;100644.63;;;6.03;100.00
10510;BME280;5303;53.266;10.410;2023-02-01T07:03:09;100651.28;;;6.18;100.00
10510;BME280;5303;53.266;10.410;2023-02-01T07:05:34;100663.59;;;5.93;100.00
10510;BME280;5303;53.266;10.410;2023-02-01T07:07:59;100656.28;;;6.13;100.00
10510;BME280;5303;53.266;10.410;2023-02-01T07:10:25;100662.38;;;6.15;100.00
10510;BME280;5303;53.266;10.410;2023-02-01T07:12:50;100655.25;;;6.24;100.00
10510;BME280;5303;53.266;10.410;2023-02-01T07:15:15;100640.78;;;6.61;100.00
10510;BME280;5303;53.266;10.410;2023-02-01T07:17:40;100629.47;;;6.47;100.00
10510;BME280;5303;53.266;10.410;2023-02-01T07:20:06;100625.75;;;6.48;100.00
10510;BME280;5303;53.266;10.410;2023-02-01T07:22:32;100619.56;;;6.38;100.00
10510;BME280;5303;53.266;10.410;2023-02-01T07:24:57;100634.28;;;6.26;100.00
10510;BME280;5303;53.266;10.410;2023-02-01T07:27:23;100632.34;;;6.46;100.00
10510;BME280;5303;53.266;10.410;2023-02-01T07:29:50;100627.53;;;6.40;100.00
10510;BME280;5303;53.266;10.410;2023-02-01T07:32:16;100632.16;;;6.29;100.00
10510;BME280;5303;53.266;10.410;2023-02-01T07:34:43;100630.13;;;6.32;100.00
10510;BME280;5303;53.266;10.410;2023-02-01T07:37:08;100631.81;;;6.42;100.00
10510;BME280;5303;53.266;10.410;2023-02-01T07:39:33;100617.84;;;6.65;100.00
10510;BME280;5303;53.266;10.410;2023-02-01T07:41:59;100618.97;;;6.44;100.00
10510;BME280;5303;53.266;10.410;2023-02-01T07:44:24;100612.50;;;6.73;100.00
10510;BME280;5303;53.266;10.410;2023-02-01T07:46:50;100617.84;;;6.65;100.00
10510;BME280;5303;53.266;10.410;2023-02-01T07:49:15;100628.44;;;6.76;100.00
10510;BME280;5303;53.266;10.410;2023-02-01T07:51:42;100631.47;;;6.91;100.00
10510;BME280;5303;53.266;10.410;2023-02-01T07:54:07;100629.28;;;6.76;100.00
10510;BME280;5303;53.266;10.410;2023-02-01T07:56:32;100632.66;;;6.61;100.00
10510;BME280;5303;53.266;10.410;2023-02-01T07:58:58;100628.75;;;6.73;100.00
10510;BME280;5303;53.266;10.410;2023-02-01T08:01:26;100627.13;;;6.98;100.00
10510;BME280;5303;53.266;10.410;2023-02-01T08:03:57;100627.06;;;7.08;100.00
10510;BME280;5303;53.266;10.410;2023-02-01T08:06:27;100625.84;;;7.46;100.00
10510;BME280;5303;53.266;10.410;2023-02-01T08:08:53;100631.19;;;7.56;100.00
10510;BME280;5303;53.266;10.410;2023-02-01T08:11:20;100629.78;;;7.08;100.00
10510;BME280;5303;53.266;10.410;2023-02-01T08:13:46;100626.34;;;7.23;100.00
10510;BME280;5303;53.266;10.410;2023-02-01T08:16:13;100626.72;;;7.29;100.00
10510;BME280;5303;53.266;10.410;2023-02-01T08:18:39;100626.47;;;7.40;100.00
10510;BME280;5303;53.266;10.410;2023-02-01T08:21:08;100614.91;;;7.12;100.00
10510;BME280;5303;53.266;10.410;2023-02-01T08:23:36;100626.88;;;7.09;100.00
10510;BME280;5303;53.266;10.410;2023-02-01T08:26:10;100624.19;;;7.09;100.00
10510;BME280;5303;53.266;10.410;2023-02-01T08:28:39;100625.59;;;7.13;100.00
10510;BME280;5303;53.266;10.410;2023-02-01T08:31:06;100630.47;;;7.10;100.00
10510;BME280;5303;53.266;10.410;2023-02-01T08:33:32;100630.22;;;7.39;100.00
10510;BME280;5303;53.266;10.410;2023-02-01T08:35:57;100626.66;;;7.38;100.00
10510;BME280;5303;53.266;10.410;2023-02-01T08:38:22;100635.97;;;7.62;100.00
10510;BME280;5303;53.266;10.410;2023-02-01T08:40:47;100632.63;;;7.68;100.00
10510;BME280;5303;53.266;10.410;2023-02-01T08:43:13;100638.81;;;7.60;100.00
10510;BME280;5303;53.266;10.410;2023-02-01T08:45:39;100637.97;;;7.60;100.00
10510;BME280;5303;53.266;10.410;2023-02-01T08:48:05;100649.09;;;7.75;100.00
10510;BME280;5303;53.266;10.410;2023-02-01T08:50:30;100646.28;;;7.58;100.00
10510;BME280;5303;53.266;10.410;2023-02-01T08:52:55;100645.47;;;7.66;100.00
10510;BME280;5303;53.266;10.410;2023-02-01T08:55:21;100643.91;;;7.81;100.00
10510;BME280;5303;53.266;10.410;2023-02-01T08:57:46;100640.88;;;7.58;100.00
10510;BME280;5303;53.266;10.410;2023-02-01T09:00:14;100641.06;;;7.65;100.00
10510;BME280;5303;53.266;10.410;2023-02-01T09:02:40;100632.09;;;7.64;100.00
10510;BME280;5303;53.266;10.410;2023-02-01T09:05:06;100631.06;;;7.65;100.00
10510;BME280;5303;53.266;10.410;2023-02-01T09:07:33;100627.31;;;7.58;100.00
10510;BME280;5303;53.266;10.410;2023-02-01T09:09:59;100625.81;;;7.90;100.00
10510;BME280;5303;53.266;10.410;2023-02-01T09:12:30;100608.41;;;8.01;100.00
10510;BME280;5303;53.266;10.410;2023-02-01T09:14:56;100625.06;;;7.54;100.00
10510;BME280;5303;53.266;10.410;2023-02-01T09:17:22;100619.69;;;7.62;100.00
10510;BME280;5303;53.266;10.410;2023-02-01T09:19:47;100616.69;;;7.99;100.00
10510;BME280;5303;53.266;10.410;2023-02-01T09:22:14;100624.00;;;7.73;100.00
10510;BME280;5303;53.266;10.410;2023-02-01T09:24:39;100616.88;;;7.98;100.00
10510;BME280;5303;53.266;10.410;2023-02-01T09:27:05;100620.81;;;8.11;100.00
10510;BME280;5303;53.266;10.410;2023-02-01T09:29:32;100621.06;;;8.26;100.00
10510;BME280;5303;53.266;10.410;2023-02-01T09:31:57;100617.00;;;8.22;100.00
10510;BME280;5303;53.266;10.410;2023-02-01T09:34:22;100620.19;;;8.17;100.00
10510;BME280;5303;53.266;10.410;2023-02-01T09:36:48;100623.56;;;8.46;100.00
10510;BME280;5303;53.266;10.410;2023-02-01T09:39:13;100626.78;;;8.41;100.00
10510;BME280;5303;53.266;10.410;2023-02-01T09:44:21;100627.81;;;8.48;100.00
10510;BME280;5303;53.266;10.410;2023-02-01T09:46:55;100629.19;;;8.52;100.00
10510;BME280;5303;53.266;10.410;2023-02-01T09:49:37;100628.63;;;8.40;100.00
10510;BME280;5303;53.266;10.410;2023-02-01T09:52:08;100639.69;;;8.55;100.00
10510;BME280;5303;53.266;10.410;2023-02-01T09:55:03;100632.00;;;8.93;100.00
10510;BME280;5303;53.266;10.410;2023-02-01T10:00:19;100637.59;;;9.08;100.00
10510;BME280;5303;53.266;10.410;2023-02-01T10:02:48;100637.28;;;9.11;100.00
10510;BME280;5303;53.266;10.410;2023-02-01T10:05:16;100630.66;;;9.05;100.00
10510;BME280;5303;53.266;10.410;2023-02-01T10:10:30;100638.41;;;8.76;100.00
10510;BME280;5303;53.266;10.410;2023-02-01T10:13:12;100637.75;;;8.90;100.00
10510;BME280;5303;53.266;10.410;2023-02-01T10:21:01;100645.91;;;8.39;100.00
10510;BME280;5303;53.266;10.410;2023-02-01T10:26:29;100661.94;;;8.59;100.00
10510;BME280;5303;53.266;10.410;2023-02-01T10:29:03;100651.34;;;8.39;100.00
10510;BME280;5303;53.266;10.410;2023-02-01T10:31:31;100663.25;;;8.47;100.00
10510;BME280;5303;53.266;10.410;2023-02-01T10:33:58;100668.56;;;8.30;100.00
10510;BME280;5303;53.266;10.410;2023-02-01T10:36:52;100652.47;;;8.29;100.00
10510;BME280;5303;53.266;10.410;2023-02-01T10:39:18;100635.25;;;8.38;100.00
10510;BME280;5303;53.266;10.410;2023-02-01T10:41:44;100649.84;;;8.45;100.00
10510;BME280;5303;53.266;10.410;2023-02-01T10:44:19;100646.09;;;8.38;100.00
10510;BME280;5303;53.266;10.410;2023-02-01T10:46:47;100645.38;;;8.36;100.00
10510;BME280;5303;53.266;10.410;2023-02-01T10:52:36;100624.91;;;8.42;100.00
10510;BME280;5303;53.266;10.410;2023-02-01T10:58:03;100614.97;;;8.75;100.00
10510;BME280;5303;53.266;10.410;2023-02-01T11:01:00;100600.25;;;9.10;100.00
10510;BME280;5303;53.266;10.410;2023-02-01T11:03:53;100584.28;;;8.99;100.00
10510;BME280;5303;53.266;10.410;2023-02-01T11:06:38;100585.63;;;8.70;100.00
10510;BME280;5303;53.266;10.410;2023-02-01T11:11:33;100570.63;;;8.42;100.00
10510;BME280;5303;53.266;10.410;2023-02-01T11:14:27;100560.28;;;8.53;100.00
10510;BME280;5303;53.266;10.410;2023-02-01T11:16:54;100563.34;;;8.58;100.00
10510;BME280;5303;53.266;10.410;2023-02-01T11:19:20;100567.94;;;8.66;100.00
10510;BME280;5303;53.266;10.410;2023-02-01T11:21:58;100551.66;;;8.82;100.00
10510;BME280;5303;53.266;10.410;2023-02-01T11:24:31;100532.97;;;8.55;100.00
10510;BME280;5303;53.266;10.410;2023-02-01T11:27:00;100548.63;;;8.77;100.00
10510;BME280;5303;53.266;10.410;2023-02-01T11:29:37;100536.75;;;8.70;100.00
10510;BME280;5303;53.266;10.410;2023-02-01T11:32:04;100548.28;;;8.89;100.00
10510;BME280;5303;53.266;10.410;2023-02-01T11:34:37;100532.81;;;8.73;100.00
10510;BME280;5303;53.266;10.410;2023-02-01T11:37:03;100532.34;;;8.94;100.00
10510;BME280;5303;53.266;10.410;2023-02-01T11:39:34;100522.31;;;9.02;100.00
10510;BME280;5303;53.266;10.410;2023-02-01T11:42:16;100527.22;;;9.07;100.00
10510;BME280;5303;53.266;10.410;2023-02-01T11:44:43;100509.06;;;9.07;100.00
10510;BME280;5303;53.266;10.410;2023-02-01T11:47:38;100516.91;;;8.86;100.00
10510;BME280;5303;53.266;10.410;2023-02-01T11:50:14;100519.75;;;9.01;100.00
10510;BME280;5303;53.266;10.410;2023-02-01T12:11:42;100481.91;;;8.99;100.00
10510;BME280;5303;53.266;10.410;2023-02-01T12:14:31;100484.44;;;9.09;100.00
10510;BME280;5303;53.266;10.410;2023-02-01T12:23:06;100466.44;;;8.92;100.00
10510;BME280;5303;53.266;10.410;2023-02-01T12:26:44;100469.84;;;9.02;100.00
10510;BME280;5303;53.266;10.410;2023-02-01T12:29:18;100459.50;;;8.56;100.00
10510;BME280;5303;53.266;10.410;2023-02-01T12:34:30;100469.53;;;7.89;100.00
10510;BME280;5303;53.266;10.410;2023-02-01T12:42:24;100480.00;;;7.76;100.00
10510;BME280;5303;53.266;10.410;2023-02-01T12:45:26;100478.28;;;7.40;100.00
10510;BME280;5303;53.266;10.410;2023-02-01T12:47:59;100482.66;;;7.33;100.00
10510;BME280;5303;53.266;10.410;2023-02-01T12:50:31;100478.91;;;7.26;100.00
10510;BME280;5303;53.266;10.410;2023-02-01T12:53:14;100491.34;;;6.93;100.00
10510;BME280;5303;53.266;10.410;2023-02-01T12:55:49;100489.41;;;6.59;100.00
10510;BME280;5303;53.266;10.410;2023-02-01T12:58:48;100483.69;;;6.62;100.00
10510;BME280;5303;53.266;10.410;2023-02-01T13:01:22;100490.56;;;6.74;100.00
10510;BME280;5303;53.266;10.410;2023-02-01T13:04:49;100487.22;;;6.63;100.00
10510;BME280;5303;53.266;10.410;2023-02-01T13:06:54;100496.50;;;6.78;100.00
10510;BME280;5303;53.266;10.410;2023-02-01T13:11:53;100508.78;;;6.01;100.00
10510;BME280;5303;53.266;10.410;2023-02-01T13:17:01;100504.28;;;6.10;100.00
10510;BME280;5303;53.266;10.410;2023-02-01T13:19:31;100494.09;;;6.21;100.00
10510;BME280;5303;53.266;10.410;2023-02-01T13:22:05;100491.16;;;6.15;100.00
10510;BME280;5303;53.266;10.410;2023-02-01T13:24:43;100496.22;;;6.00;100.00
10510;BME280;5303;53.266;10.410;2023-02-01T13:27:14;100492.72;;;5.90;100.00
10510;BME280;5303;53.266;10.410;2023-02-01T13:30:12;100511.09;;;6.14;100.00
10510;BME280;5303;53.266;10.410;2023-02-01T13:32:59;100512.41;;;6.10;100.00
10510;BME280;5303;53.266;10.410;2023-02-01T13:38:15;100517.13;;;6.07;100.00
10510;BME280;5303;53.266;10.410;2023-02-01T13:43:23;100519.75;;;6.17;100.00
10510;BME280;5303;53.266;10.410;2023-02-01T13:45:52;100510.56;;;6.28;100.00
10510;BME280;5303;53.266;10.410;2023-02-01T13:48:29;100486.28;;;6.00;100.00
10510;BME280;5303;53.266;10.410;2023-02-01T13:50:57;100484.75;;;5.98;100.00
10510;BME280;5303;53.266;10.410;2023-02-01T13:53:32;100486.91;;;6.12;100.00
10510;BME280;5303;53.266;10.410;2023-02-01T13:56:03;100487.63;;;6.14;100.00
10510;BME280;5303;53.266;10.410;2023-02-01T13:58:35;100483.16;;;6.41;100.00
10510;BME280;5303;53.266;10.410;2023-02-01T14:03:47;100481.28;;;6.41;100.00
10510;BME280;5303;53.266;10.410;2023-02-01T14:11:44;100477.81;;;6.13;100.00
10510;BME280;5303;53.266;10.410;2023-02-01T14:19:32;100481.91;;;6.17;100.00
10510;BME280;5303;53.266;10.410;2023-02-01T14:21:59;100473.00;;;6.25;100.00
10510;BME280;5303;53.266;10.410;2023-02-01T14:24:31;100485.84;;;6.41;100.00
10510;BME280;5303;53.266;10.410;2023-02-01T14:26:59;100490.31;;;6.32;100.00
10510;BME280;5303;53.266;10.410;2023-02-01T14:29:34;100500.50;;;6.02;100.00
10510;BME280;5303;53.266;10.410;2023-02-01T14:37:09;100493.97;;;6.41;100.00
10510;BME280;5303;53.266;10.410;2023-02-01T14:39:57;100495.84;;;6.58;100.00
10510;BME280;5303;53.266;10.410;2023-02-01T14:47:44;100502.94;;;6.41;100.00
10510;BME280;5303;53.266;10.410;2023-02-01T14:58:27;100502.63;;;6.44;100.00
10510;BME280;5303;53.266;10.410;2023-02-01T15:00:59;100509.97;;;6.52;100.00
10510;BME280;5303;53.266;10.410;2023-02-01T15:03:40;100546.28;;;6.32;100.00
10510;BME280;5303;53.266;10.410;2023-02-01T15:06:42;100542.53;;;6.15;100.00
10510;BME280;5303;53.266;10.410;2023-02-01T15:14:23;100564.78;;;6.09;100.00
10510;BME280;5303;53.266;10.410;2023-02-01T15:16:48;100564.53;;;6.29;100.00
10510;BME280;5303;53.266;10.410;2023-02-01T15:19:19;100578.09;;;5.82;100.00